sensor_id;sensor_type;location;lat;lon;timestamp;temperature;humidity
7155;DHT22;3619;53.784;10.440;2022-07-23T07:10:52;14.70;99.90
7155;DHT22;3619;53.784;10.440;2022-07-23T08:10:10;16.50;99.90
7155;DHT22;3619;53.784;10.440;2022-07-23T08:12:52;16.80;99.90
7155;DHT22;3619;53.784;10.440;2022-07-23T08:15:22;17.10;99.90
7155;DHT22;3619;53.784;10.440;2022-07-23T08:20:26;17.10;99.90
7155;DHT22;3619;53.784;10.440;2022-07-23T08:38:27;17.30;99.90
7155;DHT22;3619;53.784;10.440;2022-07-23T08:48:47;17.40;99.90
7155;DHT22;3619;53.784;10.440;2022-07-23T08:59:45;16.80;99.90
7155;DHT22;3619;53.784;10.440;2022-07-23T09:02:13;16.80;99.90
7155;DHT22;3619;53.784;10.440;2022-07-23T09:04:45;16.90;99.90
7155;DHT22;3619;53.784;10.440;2022-07-23T09:07:13;17.10;99.90
7155;DHT22;3619;53.784;10.440;2022-07-23T09:18:16;16.90;99.90
7155;DHT22;3619;53.784;10.440;2022-07-23T09:20:53;16.90;99.90
7155;DHT22;3619;53.784;10.440;2022-07-23T09:23:47;17.10;99.90
7155;DHT22;3619;53.784;10.440;2022-07-23T09:36:50;17.50;99.90
7155;DHT22;3619;53.784;10.440;2022-07-23T09:39:34;17.70;99.90
7155;DHT22;3619;53.784;10.440;2022-07-23T09:42:14;17.70;99.90
7155;DHT22;3619;53.784;10.440;2022-07-23T10:03:37;17.70;99.90
7155;DHT22;3619;53.784;10.440;2022-07-23T10:08:54;17.50;99.90
7155;DHT22;3619;53.784;10.440;2022-07-23T10:19:16;17.50;99.90
7155;DHT22;3619;53.784;10.440;2022-07-23T10:21:47;17.50;99.90
7155;DHT22;3619;53.784;10.440;2022-07-23T10:24:39;17.60;99.90
7155;DHT22;3619;53.784;10.440;2022-07-23T10:32:42;17.20;99.90
7155;DHT22;3619;53.784;10.440;2022-07-23T10:35:36;17.20;99.90
7155;DHT22;3619;53.784;10.440;2022-07-23T10:38:12;17.10;99.90
7155;DHT22;3619;53.784;10.440;2022-07-23T10:40:54;17.00;99.90
7155;DHT22;3619;53.784;10.440;2022-07-23T10:43:26;17.00;99.90
7155;DHT22;3619;53.784;10.440;2022-07-23T10:46:26;17.10;99.90
7155;DHT22;3619;53.784;10.440;2022-07-23T10:49:24;17.20;99.90
7155;DHT22;3619;53.784;10.440;2022-07-23T10:52:30;17.20;99.90
7155;DHT22;3619;53.784;10.440;2022-07-23T10:58:20;17.40;99.90
7155;DHT22;3619;53.784;10.440;2022-07-23T11:00:49;17.60;99.90
7155;DHT22;3619;53.784;10.440;2022-07-23T11:05:55;17.50;99.90
7155;DHT22;3619;53.784;10.440;2022-07-23T11:13:56;18.10;99.90
7155;DHT22;3619;53.784;10.440;2022-07-23T11:19:31;18.80;99.90
7155;DHT22;3619;53.784;10.440;2022-07-23T11:25:32;18.80;99.90
7155;DHT22;3619;53.784;10.440;2022-07-23T11:28:20;18.80;99.90
7155;DHT22;3619;53.784;10.440;2022-07-23T11:34:31;18.50;99.90
7155;DHT22;3619;53.784;10.440;2022-07-23T11:39:34;18.70;99.90
7155;DHT22;3619;53.784;10.440;2022-07-23T11:44:39;19.00;99.90
7155;DHT22;3619;53.784;10.440;2022-07-23T11:47:20;19.20;99.90
7155;DHT22;3619;53.784;10.440;2022-07-23T11:50:06;19.00;99.90
7155;DHT22;3619;53.784;10.440;2022-07-23T11:52:34;18.80;99.90
7155;DHT22;3619;53.784;10.440;2022-07-23T11:55:05;18.70;99.90
7155;DHT22;3619;53.784;10.440;2022-07-23T11:57:52;18.70;99.90
7155;DHT22;3619;53.784;10.440;2022-07-23T12:00:23;18.60;99.90
7155;DHT22;3619;53.784;10.440;2022-07-23T12:02:58;18.60;99.90
7155;DHT22;3619;53.784;10.440;2022-07-23T12:05:30;18.60;99.90
7155;DHT22;3619;53.784;10.440;2022-07-23T12:07:59;18.60;99.90
7155;DHT22;3619;53.784;10.440;2022-07-23T12:10:30;18.60;99.90
7155;DHT22;3619;53.784;10.440;2022-07-23T12:13:02;18.50;99.90
7155;DHT22;3619;53.784;10.440;2022-07-23T12:15:34;18.30;99.90
7155;DHT22;3619;53.784;10.440;2022-07-23T12:18:09;18.10;99.90
7155;DHT22;3619;53.784;10.440;2022-07-23T12:20:43;18.10;99.90
7155;DHT22;3619;53.784;10.440;2022-07-23T12:23:13;18.10;99.90
7155;DHT22;3619;53.784;10.440;2022-07-23T12:25:42;18.10;99.90
7155;DHT22;3619;53.784;10.440;2022-07-23T12:28:12;18.40;99.90
7155;DHT22;3619;53.784;10.440;2022-07-23T12:30:41;18.50;99.90
7155;DHT22;3619;53.784;10.440;2022-07-23T12:33:13;18.60;99.90
7155;DHT22;3619;53.784;10.440;2022-07-23T12:35:44;18.50;99.90
7155;DHT22;3619;53.784;10.440;2022-07-23T12:38:14;18.50;99.90
7155;DHT22;3619;53.784;10.440;2022-07-23T12:40:44;18.60;99.90
7155;DHT22;3619;53.784;10.440;2022-07-23T12:43:31;18.70;99.90
7155;DHT22;3619;53.784;10.440;2022-07-23T12:46:11;18.80;99.90
7155;DHT22;3619;53.784;10.440;2022-07-23T12:49:10;18.90;99.90
7155;DHT22;3619;53.784;10.440;2022-07-23T12:51:50;18.80;99.90
7155;DHT22;3619;53.784;10.440;2022-07-23T12:54:27;18.70;99.90
7155;DHT22;3619;53.784;10.440;2022-07-23T12:56:55;18.60;99.90
7155;DHT22;3619;53.784;10.440;2022-07-23T12:59:23;18.60;99.90
7155;DHT22;3619;53.784;10.440;2022-07-23T13:01:55;18.70;99.90
7155;DHT22;3619;53.784;10.440;2022-07-23T13:04:36;18.80;99.90
7155;DHT22;3619;53.784;10.440;2022-07-23T13:07:12;18.90;99.90
7155;DHT22;3619;53.784;10.440;2022-07-23T13:09:41;18.90;99.90
7155;DHT22;3619;53.784;10.440;2022-07-23T13:12:09;19.00;99.90
7155;DHT22;3619;53.784;10.440;2022-07-23T13:14:36;19.10;99.90
7155;DHT22;3619;53.784;10.440;2022-07-23T13:17:06;19.20;99.90
7155;DHT22;3619;53.784;10.440;2022-07-23T13:19:34;19.10;99.90
7155;DHT22;3619;53.784;10.440;2022-07-23T13:22:02;19.20;99.90
7155;DHT22;3619;53.784;10.440;2022-07-23T13:24:33;19.10;99.90
7155;DHT22;3619;53.784;10.440;2022-07-23T13:27:00;19.00;99.90
7155;DHT22;3619;53.784;10.440;2022-07-23T13:29:29;18.90;99.90
7155;DHT22;3619;53.784;10.440;2022-07-23T13:32:02;18.70;99.90
7155;DHT22;3619;53.784;10.440;2022-07-23T13:34:31;18.70;99.90
7155;DHT22;3619;53.784;10.440;2022-07-23T13:37:01;18.70;99.90
7155;DHT22;3619;53.784;10.440;2022-07-23T13:39:31;18.80;99.90
7155;DHT22;3619;53.784;10.440;2022-07-23T13:44:36;18.50;99.90
7155;DHT22;3619;53.784;10.440;2022-07-23T13:47:03;18.60;99.90
7155;DHT22;3619;53.784;10.440;2022-07-23T13:49:32;18.50;99.90
7155;DHT22;3619;53.784;10.440;2022-07-23T13:52:04;18.40;99.90
7155;DHT22;3619;53.784;10.440;2022-07-23T13:57:14;18.20;99.90
7155;DHT22;3619;53.784;10.440;2022-07-23T13:59:44;18.10;99.90
7155;DHT22;3619;53.784;10.440;2022-07-23T14:02:15;18.10;99.90
7155;DHT22;3619;53.784;10.440;2022-07-23T14:04:43;18.00;99.90
7155;DHT22;3619;53.784;10.440;2022-07-23T14:07:11;18.00;99.90
7155;DHT22;3619;53.784;10.440;2022-07-23T14:09:39;17.80;99.90
7155;DHT22;3619;53.784;10.440;2022-07-23T14:12:08;17.80;99.90
7155;DHT22;3619;53.784;10.440;2022-07-23T14:14:49;17.90;99.90
7155;DHT22;3619;53.784;10.440;2022-07-23T14:17:30;17.90;99.90
7155;DHT22;3619;53.784;10.440;2022-07-23T14:19:58;18.20;99.90
7155;DHT22;3619;53.784;10.440;2022-07-23T14:22:26;18.30;99.90
7155;DHT22;3619;53.784;10.440;2022-07-23T14:25:12;18.30;99.90
7155;DHT22;3619;53.784;10.440;2022-07-23T14:27:39;18.60;99.90
7155;DHT22;3619;53.784;10.440;2022-07-23T14:30:17;18.70;99.90
7155;DHT22;3619;53.784;10.440;2022-07-23T14:32:44;18.70;99.90
7155;DHT22;3619;53.784;10.440;2022-07-23T14:35:12;18.70;99.90
7155;DHT22;3619;53.784;10.440;2022-07-23T14:37:39;18.80;99.90
7155;DHT22;3619;53.784;10.440;2022-07-23T14:40:11;18.70;99.90
7155;DHT22;3619;53.784;10.440;2022-07-23T14:42:39;18.70;99.90
7155;DHT22;3619;53.784;10.440;2022-07-23T14:45:09;18.60;99.90
7155;DHT22;3619;53.784;10.440;2022-07-23T14:47:38;18.40;99.90
7155;DHT22;3619;53.784;10.440;2022-07-23T14:50:09;18.40;99.90
7155;DHT22;3619;53.784;10.440;2022-07-23T14:52:43;18.40;99.90
7155;DHT22;3619;53.784;10.440;2022-07-23T14:55:11;18.40;99.90
7155;DHT22;3619;53.784;10.440;2022-07-23T14:57:43;18.40;99.90
7155;DHT22;3619;53.784;10.440;2022-07-23T15:00:10;18.40;99.90
7155;DHT22;3619;53.784;10.440;2022-07-23T15:02:41;18.30;99.90
7155;DHT22;3619;53.784;10.440;2022-07-23T15:07:48;18.20;99.90
7155;DHT22;3619;53.784;10.440;2022-07-23T15:10:21;18.30;99.90
7155;DHT22;3619;53.784;10.440;2022-07-23T15:12:51;18.20;99.90
7155;DHT22;3619;53.784;10.440;2022-07-23T15:15:20;18.20;99.90
7155;DHT22;3619;53.784;10.440;2022-07-23T15:17:50;18.30;99.90
7155;DHT22;3619;53.784;10.440;2022-07-23T15:20:18;18.30;99.90
7155;DHT22;3619;53.784;10.440;2022-07-23T15:25:24;18.10;99.90
7155;DHT22;3619;53.784;10.440;2022-07-23T15:27:57;18.20;99.90
7155;DHT22;3619;53.784;10.440;2022-07-23T15:30:32;18.20;99.90
7155;DHT22;3619;53.784;10.440;2022-07-23T15:33:02;18.20;99.90
7155;DHT22;3619;53.784;10.440;2022-07-23T15:35:31;18.20;99.90
7155;DHT22;3619;53.784;10.440;2022-07-23T15:37:59;18.30;99.90
7155;DHT22;3619;53.784;10.440;2022-07-23T15:40:26;18.40;99.90
7155;DHT22;3619;53.784;10.440;2022-07-23T15:42:54;18.40;99.90
7155;DHT22;3619;53.784;10.440;2022-07-23T15:48:14;18.30;99.90
7155;DHT22;3619;53.784;10.440;2022-07-23T15:51:11;18.40;99.90
7155;DHT22;3619;53.784;10.440;2022-07-23T15:59:34;18.20;99.90
7155;DHT22;3619;53.784;10.440;2022-07-23T16:02:05;18.20;99.90
7155;DHT22;3619;53.784;10.440;2022-07-23T16:12:44;18.10;99.90
7155;DHT22;3619;53.784;10.440;2022-07-23T16:15:11;18.20;99.90
7155;DHT22;3619;53.784;10.440;2022-07-23T16:17:38;18.20;99.90
7155;DHT22;3619;53.784;10.440;2022-07-23T16:20:10;18.10;99.90
7155;DHT22;3619;53.784;10.440;2022-07-23T16:22:38;18.10;99.90
7155;DHT22;3619;53.784;10.440;2022-07-23T16:25:08;18.00;99.90
7155;DHT22;3619;53.784;10.440;2022-07-23T16:27:46;18.00;99.90
7155;DHT22;3619;53.784;10.440;2022-07-23T16:30:14;17.90;99.90
7155;DHT22;3619;53.784;10.440;2022-07-23T16:32:41;17.90;99.90
7155;DHT22;3619;53.784;10.440;2022-07-23T16:35:09;18.00;99.90
7155;DHT22;3619;53.784;10.440;2022-07-23T16:37:37;18.00;99.90
7155;DHT22;3619;53.784;10.440;2022-07-23T16:40:09;18.00;99.90
7155;DHT22;3619;53.784;10.440;2022-07-23T16:42:38;17.90;99.90
7155;DHT22;3619;53.784;10.440;2022-07-23T16:45:13;18.00;99.90
7155;DHT22;3619;53.784;10.440;2022-07-23T16:47:40;18.00;99.90
7155;DHT22;3619;53.784;10.440;2022-07-23T16:50:10;18.10;99.90
7155;DHT22;3619;53.784;10.440;2022-07-23T16:52:43;18.30;99.90
7155;DHT22;3619;53.784;10.440;2022-07-23T16:55:12;18.70;99.90
7155;DHT22;3619;53.784;10.440;2022-07-23T16:57:39;18.90;99.90
7155;DHT22;3619;53.784;10.440;2022-07-23T17:00:14;19.00;99.90
7155;DHT22;3619;53.784;10.440;2022-07-23T17:02:42;18.70;99.90
7155;DHT22;3619;53.784;10.440;2022-07-23T17:10:41;18.10;99.90
7155;DHT22;3619;53.784;10.440;2022-07-23T17:18:31;18.40;99.90
7155;DHT22;3619;53.784;10.440;2022-07-23T17:21:12;18.30;99.90
7155;DHT22;3619;53.784;10.440;2022-07-23T17:23:42;18.00;99.90
7155;DHT22;3619;53.784;10.440;2022-07-23T17:26:12;17.70;99.90
7155;DHT22;3619;53.784;10.440;2022-07-23T17:29:07;17.60;99.90
7155;DHT22;3619;53.784;10.440;2022-07-23T17:37:03;17.50;99.90
7155;DHT22;3619;53.784;10.440;2022-07-23T17:47:41;17.40;99.90
7155;DHT22;3619;53.784;10.440;2022-07-23T17:52:49;17.40;99.90
7155;DHT22;3619;53.784;10.440;2022-07-23T17:55:21;17.30;99.90
7155;DHT22;3619;53.784;10.440;2022-07-23T17:57:49;17.30;99.90
7155;DHT22;3619;53.784;10.440;2022-07-23T18:00:19;17.20;99.90
7155;DHT22;3619;53.784;10.440;2022-07-23T18:02:51;17.20;99.90
7155;DHT22;3619;53.784;10.440;2022-07-23T18:05:19;17.30;99.90
7155;DHT22;3619;53.784;10.440;2022-07-23T18:07:53;17.40;99.90
7155;DHT22;3619;53.784;10.440;2022-07-23T18:10:23;17.50;99.90
7155;DHT22;3619;53.784;10.440;2022-07-23T18:12:51;17.40;99.90
7155;DHT22;3619;53.784;10.440;2022-07-23T18:15:18;17.20;99.90
7155;DHT22;3619;53.784;10.440;2022-07-23T18:17:47;17.10;99.90
7155;DHT22;3619;53.784;10.440;2022-07-23T18:20:15;17.00;99.90
7155;DHT22;3619;53.784;10.440;2022-07-23T18:22:46;16.90;99.90
7155;DHT22;3619;53.784;10.440;2022-07-23T18:25:36;16.80;99.90
7155;DHT22;3619;53.784;10.440;2022-07-23T18:28:05;16.80;99.90
7155;DHT22;3619;53.784;10.440;2022-07-23T18:30:36;16.80;99.90
7155;DHT22;3619;53.784;10.440;2022-07-23T18:33:04;16.70;99.90
7155;DHT22;3619;53.784;10.440;2022-07-23T18:35:40;16.70;99.90
7155;DHT22;3619;53.784;10.440;2022-07-23T18:38:21;16.70;99.90
7155;DHT22;3619;53.784;10.440;2022-07-23T18:40:56;16.70;99.90
7155;DHT22;3619;53.784;10.440;2022-07-23T18:43:25;16.70;99.90
7155;DHT22;3619;53.784;10.440;2022-07-23T18:46:10;16.70;99.90
7155;DHT22;3619;53.784;10.440;2022-07-23T18:48:44;16.70;99.90
7155;DHT22;3619;53.784;10.440;2022-07-23T18:53:47;16.60;99.90
7155;DHT22;3619;53.784;10.440;2022-07-23T18:58:58;16.60;99.90
7155;DHT22;3619;53.784;10.440;2022-07-23T19:01:37;16.60;99.90
7155;DHT22;3619;53.784;10.440;2022-07-23T19:06:46;16.50;99.90
7155;DHT22;3619;53.784;10.440;2022-07-23T19:36:00;15.80;99.90
